sensor_id;sensor_type;location;lat;lon;timestamp;pressure;altitude;pressure_sealevel;temperature;humidity
77381;BME280;66439;50.106;10.996;2023-06-14T00:01:23;98404.21;;;16.81;47.25
77381;BME280;66439;50.106;10.996;2023-06-14T00:03:26;98402.14;;;16.81;47.29
77381;BME280;66439;50.106;10.996;2023-06-14T00:05:29;98403.21;;;16.82;47.15
77381;BME280;66439;50.106;10.996;2023-06-14T00:07:37;98400.20;;;16.81;47.41
77381;BME280;66439;50.106;10.996;2023-06-14T00:09:45;98397.69;;;16.81;47.22
77381;BME280;66439;50.106;10.996;2023-06-14T00:11:48;98398.77;;;16.85;47.13
77381;BME280;66439;50.106;10.996;2023-06-14T00:13:51;98398.61;;;16.85;47.21
77381;BME280;66439;50.106;10.996;2023-06-14T00:15:57;98392.77;;;16.82;47.39
77381;BME280;66439;50.106;10.996;2023-06-14T00:18:01;98396.70;;;16.78;47.55
77381;BME280;66439;50.106;10.996;2023-06-14T00:20:05;98396.27;;;16.74;47.80
77381;BME280;66439;50.106;10.996;2023-06-14T00:22:12;98394.10;;;16.72;47.84
77381;BME280;66439;50.106;10.996;2023-06-14T00:24:16;98390.04;;;16.72;47.93
77381;BME280;66439;50.106;10.996;2023-06-14T00:26:18;98389.00;;;16.73;47.77
77381;BME280;66439;50.106;10.996;2023-06-14T00:28:21;98388.73;;;16.75;48.02
77381;BME280;66439;50.106;10.996;2023-06-14T00:30:25;98390.50;;;16.75;48.11
77381;BME280;66439;50.106;10.996;2023-06-14T00:32:33;98390.08;;;16.75;48.16
77381;BME280;66439;50.106;10.996;2023-06-14T00:34:35;98391.12;;;16.72;48.09
77381;BME280;66439;50.106;10.996;2023-06-14T00:36:39;98393.92;;;16.65;48.32
77381;BME280;66439;50.106;10.996;2023-06-14T00:38:43;98395.27;;;16.54;48.60
77381;BME280;66439;50.106;10.996;2023-06-14T00:40:45;98389.79;;;16.44;48.92
77381;BME280;66439;50.106;10.996;2023-06-14T00:42:50;98385.27;;;16.38;48.90
77381;BME280;66439;50.106;10.996;2023-06-14T00:44:54;98383.89;;;16.36;48.93
77381;BME280;66439;50.106;10.996;2023-06-14T00:46:59;98383.58;;;16.38;49.05
77381;BME280;66439;50.106;10.996;2023-06-14T00:49:02;98385.38;;;16.41;48.85
77381;BME280;66439;50.106;10.996;2023-06-14T00:51:05;98383.54;;;16.43;48.64
77381;BME280;66439;50.106;10.996;2023-06-14T00:53:08;98380.79;;;16.44;48.92
77381;BME280;66439;50.106;10.996;2023-06-14T00:55:13;98379.07;;;16.47;48.84
77381;BME280;66439;50.106;10.996;2023-06-14T00:57:16;98383.19;;;16.46;48.85
77381;BME280;66439;50.106;10.996;2023-06-14T00:59:19;98382.14;;;16.43;49.02
77381;BME280;66439;50.106;10.996;2023-06-14T01:01:22;98381.70;;;16.43;49.04
77381;BME280;66439;50.106;10.996;2023-06-14T01:03:26;98379.98;;;16.44;49.06
77381;BME280;66439;50.106;10.996;2023-06-14T01:05:31;98378.65;;;16.44;48.93
77381;BME280;66439;50.106;10.996;2023-06-14T01:07:40;98381.05;;;16.44;48.84
77381;BME280;66439;50.106;10.996;2023-06-14T01:13:02;98376.64;;;16.43;49.01
77381;BME280;66439;50.106;10.996;2023-06-14T01:15:02;98378.63;;;16.35;49.29
77381;BME280;66439;50.106;10.996;2023-06-14T01:17:08;98378.80;;;16.23;49.44
77381;BME280;66439;50.106;10.996;2023-06-14T01:19:17;98377.94;;;16.16;49.52
77381;BME280;66439;50.106;10.996;2023-06-14T01:21:22;98377.84;;;16.14;49.74
77381;BME280;66439;50.106;10.996;2023-06-14T01:23:26;98380.29;;;16.07;50.11
77381;BME280;66439;50.106;10.996;2023-06-14T01:25:35;98380.55;;;15.96;50.38
77381;BME280;66439;50.106;10.996;2023-06-14T01:27:39;98380.55;;;15.86;50.80
77381;BME280;66439;50.106;10.996;2023-06-14T01:29:42;98379.73;;;15.78;50.90
77381;BME280;66439;50.106;10.996;2023-06-14T01:31:50;98383.36;;;15.72;51.25
77381;BME280;66439;50.106;10.996;2023-06-14T01:33:53;98388.38;;;15.64;51.32
77381;BME280;66439;50.106;10.996;2023-06-14T01:35:59;98385.39;;;15.57;51.46
77381;BME280;66439;50.106;10.996;2023-06-14T01:38:06;98382.59;;;15.53;51.55
77381;BME280;66439;50.106;10.996;2023-06-14T01:40:12;98382.80;;;15.52;51.47
77381;BME280;66439;50.106;10.996;2023-06-14T01:42:18;98387.41;;;15.53;51.41
77381;BME280;66439;50.106;10.996;2023-06-14T01:44:22;98385.36;;;15.56;51.30
77381;BME280;66439;50.106;10.996;2023-06-14T01:46:25;98384.05;;;15.62;51.31
77381;BME280;66439;50.106;10.996;2023-06-14T01:48:29;98385.98;;;15.65;51.12
77381;BME280;66439;50.106;10.996;2023-06-14T01:50:32;98386.40;;;15.69;51.15
77381;BME280;66439;50.106;10.996;2023-06-14T01:52:36;98385.90;;;15.74;51.23
77381;BME280;66439;50.106;10.996;2023-06-14T01:54:39;98380.85;;;15.75;51.20
77381;BME280;66439;50.106;10.996;2023-06-14T01:56:44;98384.75;;;15.73;51.02
77381;BME280;66439;50.106;10.996;2023-06-14T01:58:49;98381.64;;;15.70;51.00
77381;BME280;66439;50.106;10.996;2023-06-14T02:00:52;98385.45;;;15.65;51.21
77381;BME280;66439;50.106;10.996;2023-06-14T02:02:58;98387.00;;;15.56;51.37
77381;BME280;66439;50.106;10.996;2023-06-14T02:05:01;98383.73;;;15.48;51.55
77381;BME280;66439;50.106;10.996;2023-06-14T02:07:04;98385.45;;;15.44;51.71
77381;BME280;66439;50.106;10.996;2023-06-14T02:09:09;98385.71;;;15.42;51.64
77381;BME280;66439;50.106;10.996;2023-06-14T02:11:18;98384.36;;;15.39;51.94
77381;BME280;66439;50.106;10.996;2023-06-14T02:13:21;98381.41;;;15.39;51.91
77381;BME280;66439;50.106;10.996;2023-06-14T02:15:25;98381.77;;;15.41;51.98
77381;BME280;66439;50.106;10.996;2023-06-14T02:17:39;98382.31;;;15.44;51.89
77381;BME280;66439;50.106;10.996;2023-06-14T02:19:42;98379.81;;;15.46;51.76
77381;BME280;66439;50.106;10.996;2023-06-14T02:21:46;98379.23;;;15.47;51.93
77381;BME280;66439;50.106;10.996;2023-06-14T02:23:49;98380.33;;;15.44;51.95
77381;BME280;66439;50.106;10.996;2023-06-14T02:25:52;98379.26;;;15.44;51.87
77381;BME280;66439;50.106;10.996;2023-06-14T02:27:55;98383.98;;;15.42;51.83
77381;BME280;66439;50.106;10.996;2023-06-14T02:29:58;98385.27;;;15.39;51.89
77381;BME280;66439;50.106;10.996;2023-06-14T02:32:01;98390.42;;;15.32;52.17
77381;BME280;66439;50.106;10.996;2023-06-14T02:34:04;98391.75;;;15.23;52.36
77381;BME280;66439;50.106;10.996;2023-06-14T02:36:08;98398.37;;;15.16;52.43
77381;BME280;66439;50.106;10.996;2023-06-14T02:38:11;98398.79;;;15.10;52.55
77381;BME280;66439;50.106;10.996;2023-06-14T02:40:14;98397.19;;;15.05;52.71
77381;BME280;66439;50.106;10.996;2023-06-14T02:42:18;98398.52;;;15.00;52.94
77381;BME280;66439;50.106;10.996;2023-06-14T02:44:24;98398.59;;;14.94;53.04
77381;BME280;66439;50.106;10.996;2023-06-14T02:46:28;98398.86;;;14.87;53.48
77381;BME280;66439;50.106;10.996;2023-06-14T02:48:31;98401.34;;;14.81;53.56
77381;BME280;66439;50.106;10.996;2023-06-14T02:50:33;98407.06;;;14.76;53.88
77381;BME280;66439;50.106;10.996;2023-06-14T02:52:36;98406.16;;;14.70;53.79
77381;BME280;66439;50.106;10.996;2023-06-14T02:54:39;98406.14;;;14.67;53.98
77381;BME280;66439;50.106;10.996;2023-06-14T02:56:43;98406.23;;;14.62;54.15
77381;BME280;66439;50.106;10.996;2023-06-14T02:58:46;98403.94;;;14.64;53.90
77381;BME280;66439;50.106;10.996;2023-06-14T03:00:51;98410.02;;;14.71;53.82
77381;BME280;66439;50.106;10.996;2023-06-14T03:02:55;98412.09;;;14.75;53.65
77381;BME280;66439;50.106;10.996;2023-06-14T03:05:03;98412.54;;;14.75;53.65
77381;BME280;66439;50.106;10.996;2023-06-14T03:07:07;98415.04;;;14.72;53.78
77381;BME280;66439;50.106;10.996;2023-06-14T03:09:22;98414.13;;;14.67;53.63
77381;BME280;66439;50.106;10.996;2023-06-14T03:11:25;98413.70;;;14.62;53.74
77381;BME280;66439;50.106;10.996;2023-06-14T03:13:28;98412.76;;;14.57;54.01
77381;BME280;66439;50.106;10.996;2023-06-14T03:15:36;98417.95;;;14.53;54.06
77381;BME280;66439;50.106;10.996;2023-06-14T03:17:40;98418.35;;;14.52;54.12
77381;BME280;66439;50.106;10.996;2023-06-14T03:19:43;98423.90;;;14.50;54.21
77381;BME280;66439;50.106;10.996;2023-06-14T03:21:48;98420.64;;;14.45;54.52
77381;BME280;66439;50.106;10.996;2023-06-14T03:23:51;98427.18;;;14.41;54.48
77381;BME280;66439;50.106;10.996;2023-06-14T03:25:55;98429.92;;;14.37;54.59
77381;BME280;66439;50.106;10.996;2023-06-14T03:27:59;98435.49;;;14.32;54.72
77381;BME280;66439;50.106;10.996;2023-06-14T03:30:02;98431.77;;;14.28;54.74
77381;BME280;66439;50.106;10.996;2023-06-14T03:32:06;98432.32;;;14.26;55.22
77381;BME280;66439;50.106;10.996;2023-06-14T03:34:14;98435.42;;;14.21;55.42
77381;BME280;66439;50.106;10.996;2023-06-14T03:36:17;98435.33;;;14.17;55.42
77381;BME280;66439;50.106;10.996;2023-06-14T03:38:21;98437.55;;;14.14;55.56
77381;BME280;66439;50.106;10.996;2023-06-14T03:40:26;98439.27;;;14.09;55.71
77381;BME280;66439;50.106;10.996;2023-06-14T03:42:37;98444.10;;;14.05;56.01
77381;BME280;66439;50.106;10.996;2023-06-14T03:44:40;98444.49;;;13.98;56.25
77381;BME280;66439;50.106;10.996;2023-06-14T03:46:44;98449.35;;;13.95;56.26
77381;BME280;66439;50.106;10.996;2023-06-14T03:48:48;98450.23;;;13.93;56.44
77381;BME280;66439;50.106;10.996;2023-06-14T03:50:52;98451.30;;;13.92;56.47
77381;BME280;66439;50.106;10.996;2023-06-14T03:52:56;98450.97;;;13.90;56.59
77381;BME280;66439;50.106;10.996;2023-06-14T03:54:59;98456.41;;;13.88;56.58
77381;BME280;66439;50.106;10.996;2023-06-14T03:57:08;98456.45;;;13.86;56.76
77381;BME280;66439;50.106;10.996;2023-06-14T03:59:11;98456.20;;;13.84;56.92
77381;BME280;66439;50.106;10.996;2023-06-14T04:01:16;98460.06;;;13.85;56.93
77381;BME280;66439;50.106;10.996;2023-06-14T04:03:19;98460.65;;;13.84;57.14
77381;BME280;66439;50.106;10.996;2023-06-14T04:05:24;98462.54;;;13.85;57.18
77381;BME280;66439;50.106;10.996;2023-06-14T04:07:30;98459.20;;;13.84;57.30
77381;BME280;66439;50.106;10.996;2023-06-14T04:09:33;98464.27;;;13.84;57.28
77381;BME280;66439;50.106;10.996;2023-06-14T04:11:37;98466.92;;;13.85;57.33
77381;BME280;66439;50.106;10.996;2023-06-14T04:13:40;98464.22;;;13.87;57.27
77381;BME280;66439;50.106;10.996;2023-06-14T04:15:43;98466.91;;;13.89;57.16
77381;BME280;66439;50.106;10.996;2023-06-14T04:17:51;98468.81;;;13.91;57.16
77381;BME280;66439;50.106;10.996;2023-06-14T04:19:57;98465.22;;;13.93;57.48
77381;BME280;66439;50.106;10.996;2023-06-14T04:22:01;98469.26;;;13.94;57.71
77381;BME280;66439;50.106;10.996;2023-06-14T04:24:10;98472.25;;;13.96;57.98
77381;BME280;66439;50.106;10.996;2023-06-14T04:26:17;98476.55;;;14.00;58.17
77381;BME280;66439;50.106;10.996;2023-06-14T04:28:23;98478.18;;;14.03;58.07
77381;BME280;66439;50.106;10.996;2023-06-14T04:30:28;98482.98;;;14.07;57.80
77381;BME280;66439;50.106;10.996;2023-06-14T04:32:34;98485.11;;;14.13;57.77
77381;BME280;66439;50.106;10.996;2023-06-14T04:34:37;98484.22;;;14.18;57.56
77381;BME280;66439;50.106;10.996;2023-06-14T04:36:43;98478.70;;;14.22;57.43
77381;BME280;66439;50.106;10.996;2023-06-14T04:38:52;98482.58;;;14.26;57.34
77381;BME280;66439;50.106;10.996;2023-06-14T04:40:59;98482.77;;;14.29;57.13
77381;BME280;66439;50.106;10.996;2023-06-14T04:43:04;98485.02;;;14.34;57.11
77381;BME280;66439;50.106;10.996;2023-06-14T04:45:07;98485.33;;;14.37;56.90
77381;BME280;66439;50.106;10.996;2023-06-14T04:47:14;98488.19;;;14.41;56.75
77381;BME280;66439;50.106;10.996;2023-06-14T04:49:19;98492.02;;;14.45;56.93
77381;BME280;66439;50.106;10.996;2023-06-14T04:51:22;98494.55;;;14.50;56.72
77381;BME280;66439;50.106;10.996;2023-06-14T04:53:32;98498.31;;;14.55;56.78
77381;BME280;66439;50.106;10.996;2023-06-14T04:55:34;98498.17;;;14.57;56.49
77381;BME280;66439;50.106;10.996;2023-06-14T04:57:40;98501.79;;;14.61;56.27
77381;BME280;66439;50.106;10.996;2023-06-14T04:59:44;98503.02;;;14.68;56.19
77381;BME280;66439;50.106;10.996;2023-06-14T05:01:47;98505.42;;;14.72;56.29
77381;BME280;66439;50.106;10.996;2023-06-14T05:03:50;98503.98;;;14.75;56.01
77381;BME280;66439;50.106;10.996;2023-06-14T05:05:53;98504.69;;;14.77;55.77
77381;BME280;66439;50.106;10.996;2023-06-14T05:07:57;98502.84;;;14.78;55.92
77381;BME280;66439;50.106;10.996;2023-06-14T05:10:02;98503.19;;;14.81;55.86
77381;BME280;66439;50.106;10.996;2023-06-14T05:12:05;98505.77;;;14.85;55.74
77381;BME280;66439;50.106;10.996;2023-06-14T05:14:11;98505.68;;;14.85;55.72
77381;BME280;66439;50.106;10.996;2023-06-14T05:16:14;98507.37;;;14.90;55.56
77381;BME280;66439;50.106;10.996;2023-06-14T05:18:21;98506.48;;;14.95;55.40
77381;BME280;66439;50.106;10.996;2023-06-14T05:20:25;98508.96;;;15.04;55.46
77381;BME280;66439;50.106;10.996;2023-06-14T05:22:29;98513.78;;;15.12;55.10
77381;BME280;66439;50.106;10.996;2023-06-14T05:24:32;98513.84;;;15.20;55.11
77381;BME280;66439;50.106;10.996;2023-06-14T05:26:36;98515.51;;;15.28;55.04
77381;BME280;66439;50.106;10.996;2023-06-14T05:28:39;98516.52;;;15.33;54.66
77381;BME280;66439;50.106;10.996;2023-06-14T05:30:41;98517.06;;;15.35;54.52
77381;BME280;66439;50.106;10.996;2023-06-14T05:32:44;98519.55;;;15.39;54.30
77381;BME280;66439;50.106;10.996;2023-06-14T05:34:47;98522.59;;;15.43;54.42
77381;BME280;66439;50.106;10.996;2023-06-14T05:36:50;98529.98;;;15.48;54.21
77381;BME280;66439;50.106;10.996;2023-06-14T05:38:53;98530.21;;;15.50;54.05
77381;BME280;66439;50.106;10.996;2023-06-14T05:41:05;98534.05;;;15.53;54.04
77381;BME280;66439;50.106;10.996;2023-06-14T05:43:08;98526.11;;;15.51;53.93
77381;BME280;66439;50.106;10.996;2023-06-14T05:45:10;98532.57;;;15.53;53.79
77381;BME280;66439;50.106;10.996;2023-06-14T05:47:13;98531.46;;;15.56;53.78
77381;BME280;66439;50.106;10.996;2023-06-14T05:49:15;98526.45;;;15.59;53.86
77381;BME280;66439;50.106;10.996;2023-06-14T05:51:18;98524.76;;;15.60;53.72
77381;BME280;66439;50.106;10.996;2023-06-14T05:53:21;98524.48;;;15.62;53.82
77381;BME280;66439;50.106;10.996;2023-06-14T05:55:25;98528.80;;;15.64;53.92
77381;BME280;66439;50.106;10.996;2023-06-14T05:57:28;98532.83;;;15.70;54.10
77381;BME280;66439;50.106;10.996;2023-06-14T05:59:30;98534.09;;;15.74;53.78
77381;BME280;66439;50.106;10.996;2023-06-14T06:01:33;98533.64;;;15.76;53.54
77381;BME280;66439;50.106;10.996;2023-06-14T06:03:39;98533.27;;;15.79;53.83
77381;BME280;66439;50.106;10.996;2023-06-14T06:05:42;98534.31;;;15.81;53.99
77381;BME280;66439;50.106;10.996;2023-06-14T06:07:47;98534.71;;;15.84;53.73
77381;BME280;66439;50.106;10.996;2023-06-14T06:09:51;98535.63;;;15.87;53.64
77381;BME280;66439;50.106;10.996;2023-06-14T06:11:54;98535.98;;;15.92;53.57
77381;BME280;66439;50.106;10.996;2023-06-14T06:13:57;98538.23;;;16.01;53.63
77381;BME280;66439;50.106;10.996;2023-06-14T06:15:59;98538.95;;;16.09;53.59
77381;BME280;66439;50.106;10.996;2023-06-14T06:18:02;98533.41;;;16.14;53.12
77381;BME280;66439;50.106;10.996;2023-06-14T06:20:06;98538.52;;;16.14;52.93
77381;BME280;66439;50.106;10.996;2023-06-14T06:22:11;98537.73;;;16.17;52.87
77381;BME280;66439;50.106;10.996;2023-06-14T06:24:14;98540.73;;;16.20;52.95
77381;BME280;66439;50.106;10.996;2023-06-14T06:26:17;98543.56;;;16.24;52.76
77381;BME280;66439;50.106;10.996;2023-06-14T06:28:20;98547.13;;;16.30;52.77
77381;BME280;66439;50.106;10.996;2023-06-14T06:30:24;98547.89;;;16.32;52.61
77381;BME280;66439;50.106;10.996;2023-06-14T06:32:27;98550.98;;;16.35;52.61
77381;BME280;66439;50.106;10.996;2023-06-14T06:34:30;98545.73;;;16.41;52.57
77381;BME280;66439;50.106;10.996;2023-06-14T06:36:33;98546.30;;;16.48;52.51
77381;BME280;66439;50.106;10.996;2023-06-14T06:38:36;98541.42;;;16.55;52.22
77381;BME280;66439;50.106;10.996;2023-06-14T06:40:39;98546.04;;;16.60;51.91
77381;BME280;66439;50.106;10.996;2023-06-14T06:42:42;98546.61;;;16.63;51.90
77381;BME280;66439;50.106;10.996;2023-06-14T06:44:47;98549.83;;;16.69;52.04
77381;BME280;66439;50.106;10.996;2023-06-14T06:46:51;98551.92;;;16.75;51.60
77381;BME280;66439;50.106;10.996;2023-06-14T06:48:54;98551.14;;;16.80;51.48
77381;BME280;66439;50.106;10.996;2023-06-14T06:50:57;98553.78;;;16.85;51.31
77381;BME280;66439;50.106;10.996;2023-06-14T06:53:00;98552.45;;;16.89;50.93
77381;BME280;66439;50.106;10.996;2023-06-14T06:55:03;98553.70;;;16.91;51.13
77381;BME280;66439;50.106;10.996;2023-06-14T06:57:05;98557.30;;;16.97;50.98
77381;BME280;66439;50.106;10.996;2023-06-14T06:59:10;98559.31;;;17.06;50.93
77381;BME280;66439;50.106;10.996;2023-06-14T07:01:13;98557.74;;;17.15;50.61
77381;BME280;66439;50.106;10.996;2023-06-14T07:03:16;98558.38;;;17.16;50.13
77381;BME280;66439;50.106;10.996;2023-06-14T07:05:19;98563.70;;;17.22;50.61
77381;BME280;66439;50.106;10.996;2023-06-14T07:07:22;98562.45;;;17.32;50.24
77381;BME280;66439;50.106;10.996;2023-06-14T07:09:25;98564.98;;;17.38;49.98
77381;BME280;66439;50.106;10.996;2023-06-14T07:11:27;98566.60;;;17.41;49.49
77381;BME280;66439;50.106;10.996;2023-06-14T07:13:31;98563.70;;;17.42;49.36
77381;BME280;66439;50.106;10.996;2023-06-14T07:15:34;98566.30;;;17.45;49.18
77381;BME280;66439;50.106;10.996;2023-06-14T07:17:37;98567.50;;;17.47;49.01
77381;BME280;66439;50.106;10.996;2023-06-14T07:19:40;98568.71;;;17.48;48.98
77381;BME280;66439;50.106;10.996;2023-06-14T07:21:43;98565.46;;;17.54;49.23
77381;BME280;66439;50.106;10.996;2023-06-14T07:23:47;98565.50;;;17.58;48.95
77381;BME280;66439;50.106;10.996;2023-06-14T07:25:51;98567.92;;;17.65;49.01
77381;BME280;66439;50.106;10.996;2023-06-14T07:27:53;98566.96;;;17.70;48.88
77381;BME280;66439;50.106;10.996;2023-06-14T07:29:56;98569.89;;;17.78;48.87
77381;BME280;66439;50.106;10.996;2023-06-14T07:31:59;98573.71;;;17.86;48.49
77381;BME280;66439;50.106;10.996;2023-06-14T07:34:02;98573.70;;;17.89;48.06
77381;BME280;66439;50.106;10.996;2023-06-14T07:36:06;98570.79;;;17.92;47.95
77381;BME280;66439;50.106;10.996;2023-06-14T07:38:10;98572.31;;;17.97;47.95
77381;BME280;66439;50.106;10.996;2023-06-14T07:40:13;98566.80;;;18.03;48.07
77381;BME280;66439;50.106;10.996;2023-06-14T07:42:17;98567.05;;;18.07;47.61
77381;BME280;66439;50.106;10.996;2023-06-14T07:44:39;98572.73;;;18.09;47.51
77381;BME280;66439;50.106;10.996;2023-06-14T07:46:42;98568.70;;;18.12;47.13
77381;BME280;66439;50.106;10.996;2023-06-14T07:48:46;98568.29;;;18.12;46.65
77381;BME280;66439;50.106;10.996;2023-06-14T07:50:50;98569.23;;;18.11;46.75
77381;BME280;66439;50.106;10.996;2023-06-14T07:52:53;98568.31;;;18.15;46.91
77381;BME280;66439;50.106;10.996;2023-06-14T07:54:56;98567.34;;;18.20;46.76
77381;BME280;66439;50.106;10.996;2023-06-14T07:56:59;98567.13;;;18.23;46.68
77381;BME280;66439;50.106;10.996;2023-06-14T07:59:03;98567.82;;;18.28;46.66
77381;BME280;66439;50.106;10.996;2023-06-14T08:01:09;98564.81;;;18.33;46.53
77381;BME280;66439;50.106;10.996;2023-06-14T08:03:12;98560.08;;;18.38;46.50
77381;BME280;66439;50.106;10.996;2023-06-14T08:05:16;98560.48;;;18.45;46.56
77381;BME280;66439;50.106;10.996;2023-06-14T08:07:19;98565.84;;;18.51;46.30
77381;BME280;66439;50.106;10.996;2023-06-14T08:09:22;98567.02;;;18.62;46.39
77381;BME280;66439;50.106;10.996;2023-06-14T08:11:25;98565.90;;;18.72;46.21
77381;BME280;66439;50.106;10.996;2023-06-14T08:13:29;98564.55;;;18.79;45.82
77381;BME280;66439;50.106;10.996;2023-06-14T08:15:33;98566.84;;;18.80;45.13
77381;BME280;66439;50.106;10.996;2023-06-14T08:17:36;98565.05;;;18.80;44.86
77381;BME280;66439;50.106;10.996;2023-06-14T08:19:39;98566.52;;;18.80;44.65
77381;BME280;66439;50.106;10.996;2023-06-14T08:21:42;98566.46;;;18.81;44.41
77381;BME280;66439;50.106;10.996;2023-06-14T08:23:46;98567.36;;;18.83;44.29
77381;BME280;66439;50.106;10.996;2023-06-14T08:25:51;98566.25;;;18.86;44.00
77381;BME280;66439;50.106;10.996;2023-06-14T08:27:53;98568.73;;;18.90;44.03
77381;BME280;66439;50.106;10.996;2023-06-14T08:29:57;98569.52;;;18.94;43.80
77381;BME280;66439;50.106;10.996;2023-06-14T08:32:00;98568.05;;;18.99;43.47
77381;BME280;66439;50.106;10.996;2023-06-14T08:34:03;98564.80;;;19.04;43.30
77381;BME280;66439;50.106;10.996;2023-06-14T08:36:08;98566.45;;;19.09;43.06
77381;BME280;66439;50.106;10.996;2023-06-14T08:38:13;98566.31;;;19.13;42.57
77381;BME280;66439;50.106;10.996;2023-06-14T08:40:23;98561.10;;;19.16;42.45
77381;BME280;66439;50.106;10.996;2023-06-14T08:42:27;98564.38;;;19.22;42.44
77381;BME280;66439;50.106;10.996;2023-06-14T08:44:36;98565.29;;;19.28;42.81
77381;BME280;66439;50.106;10.996;2023-06-14T08:46:39;98566.81;;;19.39;42.55
77381;BME280;66439;50.106;10.996;2023-06-14T08:48:42;98565.20;;;19.49;42.13
77381;BME280;66439;50.106;10.996;2023-06-14T08:50:46;98558.54;;;19.59;42.25
77381;BME280;66439;50.106;10.996;2023-06-14T08:52:58;98558.49;;;19.68;41.97
77381;BME280;66439;50.106;10.996;2023-06-14T08:55:07;98559.63;;;19.73;41.18
77381;BME280;66439;50.106;10.996;2023-06-14T08:57:12;98558.65;;;19.71;41.12
77381;BME280;66439;50.106;10.996;2023-06-14T08:59:17;98559.63;;;19.69;41.59
77381;BME280;66439;50.106;10.996;2023-06-14T09:01:22;98561.29;;;19.75;41.56
77381;BME280;66439;50.106;10.996;2023-06-14T09:03:26;98554.89;;;19.76;40.92
77381;BME280;66439;50.106;10.996;2023-06-14T09:05:34;98558.96;;;19.79;40.60
77381;BME280;66439;50.106;10.996;2023-06-14T09:07:37;98559.23;;;19.81;40.43
77381;BME280;66439;50.106;10.996;2023-06-14T09:09:41;98558.27;;;19.83;40.77
77381;BME280;66439;50.106;10.996;2023-06-14T09:12:08;98561.41;;;19.94;40.89
77381;BME280;66439;50.106;10.996;2023-06-14T09:14:15;98560.85;;;20.00;39.81
77381;BME280;66439;50.106;10.996;2023-06-14T09:16:17;98564.98;;;19.94;39.31
77381;BME280;66439;50.106;10.996;2023-06-14T09:18:21;98566.21;;;19.90;39.75
77381;BME280;66439;50.106;10.996;2023-06-14T09:20:36;98564.12;;;19.95;39.82
77381;BME280;66439;50.106;10.996;2023-06-14T09:22:39;98563.36;;;19.96;39.01
77381;BME280;66439;50.106;10.996;2023-06-14T09:24:42;98566.02;;;19.96;38.90
77381;BME280;66439;50.106;10.996;2023-06-14T09:26:47;98569.77;;;19.97;39.21
77381;BME280;66439;50.106;10.996;2023-06-14T09:28:51;98566.45;;;20.00;38.64
77381;BME280;66439;50.106;10.996;2023-06-14T09:30:55;98566.32;;;19.97;38.60
77381;BME280;66439;50.106;10.996;2023-06-14T09:33:01;98560.40;;;19.95;38.38
77381;BME280;66439;50.106;10.996;2023-06-14T09:35:05;98565.52;;;19.99;38.42
77381;BME280;66439;50.106;10.996;2023-06-14T09:37:09;98560.84;;;20.07;38.72
77381;BME280;66439;50.106;10.996;2023-06-14T09:39:17;98560.95;;;20.14;39.05
77381;BME280;66439;50.106;10.996;2023-06-14T09:41:34;98563.11;;;20.22;38.16
77381;BME280;66439;50.106;10.996;2023-06-14T09:43:38;98561.47;;;20.25;37.62
77381;BME280;66439;50.106;10.996;2023-06-14T09:45:41;98559.68;;;20.24;38.06
77381;BME280;66439;50.106;10.996;2023-06-14T09:47:51;98558.08;;;20.22;37.83
77381;BME280;66439;50.106;10.996;2023-06-14T09:50:09;98560.95;;;20.28;38.02
77381;BME280;66439;50.106;10.996;2023-06-14T09:52:17;98562.80;;;20.36;37.78
77381;BME280;66439;50.106;10.996;2023-06-14T09:54:24;98566.43;;;20.40;37.10
77381;BME280;66439;50.106;10.996;2023-06-14T09:56:30;98563.31;;;20.47;37.56
77381;BME280;66439;50.106;10.996;2023-06-14T09:58:35;98554.69;;;20.53;36.76
77381;BME280;66439;50.106;10.996;2023-06-14T10:00:41;98552.80;;;20.59;36.40
77381;BME280;66439;50.106;10.996;2023-06-14T10:02:47;98554.54;;;20.64;36.33
77381;BME280;66439;50.106;10.996;2023-06-14T10:04:58;98558.40;;;20.66;36.34
77381;BME280;66439;50.106;10.996;2023-06-14T10:07:04;98563.00;;;20.66;36.68
77381;BME280;66439;50.106;10.996;2023-06-14T10:09:10;98556.25;;;20.71;36.75
77381;BME280;66439;50.106;10.996;2023-06-14T10:11:13;98558.31;;;20.77;36.63
77381;BME280;66439;50.106;10.996;2023-06-14T10:13:17;98559.02;;;20.81;36.41
77381;BME280;66439;50.106;10.996;2023-06-14T10:15:26;98558.89;;;20.84;36.10
77381;BME280;66439;50.106;10.996;2023-06-14T10:17:54;98557.25;;;20.88;36.45
77381;BME280;66439;50.106;10.996;2023-06-14T10:20:32;98553.50;;;20.91;36.45
77381;BME280;66439;50.106;10.996;2023-06-14T10:22:37;98558.29;;;20.88;35.80
77381;BME280;66439;50.106;10.996;2023-06-14T10:24:45;98559.54;;;20.80;35.93
77381;BME280;66439;50.106;10.996;2023-06-14T10:26:54;98559.77;;;20.77;36.07
77381;BME280;66439;50.106;10.996;2023-06-14T10:29:08;98554.95;;;20.77;36.13
77381;BME280;66439;50.106;10.996;2023-06-14T10:31:12;98556.27;;;20.76;35.71
77381;BME280;66439;50.106;10.996;2023-06-14T10:33:17;98554.63;;;20.77;35.89
77381;BME280;66439;50.106;10.996;2023-06-14T10:35:20;98552.44;;;20.79;35.97
77381;BME280;66439;50.106;10.996;2023-06-14T10:37:23;98552.08;;;20.85;36.00
77381;BME280;66439;50.106;10.996;2023-06-14T10:39:27;98552.45;;;20.94;36.04
77381;BME280;66439;50.106;10.996;2023-06-14T10:41:30;98556.31;;;21.02;36.20
77381;BME280;66439;50.106;10.996;2023-06-14T10:43:32;98552.69;;;21.13;36.28
77381;BME280;66439;50.106;10.996;2023-06-14T10:46:14;98556.97;;;21.23;35.92
77381;BME280;66439;50.106;10.996;2023-06-14T10:48:29;98552.77;;;21.32;36.04
77381;BME280;66439;50.106;10.996;2023-06-14T10:50:34;98551.83;;;21.38;35.46
77381;BME280;66439;50.106;10.996;2023-06-14T10:52:39;98546.70;;;21.41;35.31
77381;BME280;66439;50.106;10.996;2023-06-14T10:55:02;98549.89;;;21.45;35.26
77381;BME280;66439;50.106;10.996;2023-06-14T10:57:06;98547.07;;;21.51;35.24